Time;durP1;ratioP1;P1;durP2;ratioP2;P2;SDS_P1;SDS_P2;PMS_P1;PMS_P2;Temp;Humidity;BMP_temperature;BMP_pressure;BME280_temperature;BME280_humidity;BME280_pressure;Samples;Min_cycle;Max_cycle;Signal;HPM_P1;HPM_P2
2022/08/14 00:01:38;;;;;;;;;;;;;;;20.39;76.29;100272.03;5042688;28;1094;-81
2022/08/14 00:04:03;;;;;;;;;;;;;;;20.57;75.54;100278.94;5038882;28;1780;-82
2022/08/14 00:06:29;;;;;;;;;;;;;;;20.64;75.58;100284.69;5039344;28;1651;-82
2022/08/14 00:08:54;;;;;;;;;;;;;;;20.61;75.60;100279.81;5041215;28;1919;-82
2022/08/14 00:11:19;;;;;;;;;;;;;;;20.65;75.29;100282.72;5043114;28;1816;-82
2022/08/14 00:13:44;;;;;;;;;;;;;;;20.41;75.93;100280.03;5043121;28;1326;-82
2022/08/14 00:16:13;;;;;;;;;;;;;;;20.46;76.19;100286.16;5042427;28;1733;-82
2022/08/14 00:18:38;;;;;;;;;;;;;;;20.46;76.28;100283.34;5043902;28;1602;-82
2022/08/14 00:21:03;;;;;;;;;;;;;;;20.48;76.08;100283.81;5038191;28;1268;-82
2022/08/14 00:23:28;;;;;;;;;;;;;;;20.26;76.96;100284.28;5028739;28;1658;-82
2022/08/14 00:25:54;;;;;;;;;;;;;;;20.19;77.48;100279.34;5038394;28;1299;-82
2022/08/14 00:28:25;;;;;;;;;;;;;;;20.14;77.72;100278.78;5041318;28;1936;-82
2022/08/14 00:30:50;;;;;;;;;;;;;;;20.33;76.77;100276.19;5042238;28;1088;-81
2022/08/14 00:33:15;;;;;;;;;;;;;;;20.26;77.01;100276.78;5042463;28;1817;-82
2022/08/14 00:35:40;;;;;;;;;;;;;;;20.26;76.91;100278.75;5043819;28;1856;-82
2022/08/14 00:38:06;;;;;;;;;;;;;;;20.41;76.43;100280.84;5043913;28;1754;-82
2022/08/14 00:40:31;;;;;;;;;;;;;;;20.22;76.84;100272.28;5044533;28;1089;-82
2022/08/14 00:42:56;;;;;;;;;;;;;;;20.20;76.93;100269.84;5043029;28;1496;-82
2022/08/14 00:45:21;;;;;;;;;;;;;;;20.11;77.31;100266.38;5044661;28;1392;-82
2022/08/14 00:47:47;;;;;;;;;;;;;;;20.23;76.95;100271.94;5041014;28;1391;-82
2022/08/14 00:50:13;;;;;;;;;;;;;;;20.23;76.69;100271.94;5043776;28;1894;-82
2022/08/14 00:52:39;;;;;;;;;;;;;;;19.96;77.64;100265.13;5043904;28;1276;-81
2022/08/14 00:55:05;;;;;;;;;;;;;;;20.11;77.26;100258.03;5041578;28;1298;-82
2022/08/14 00:57:32;;;;;;;;;;;;;;;20.09;76.85;100265.09;5043840;28;1917;-82
2022/08/14 00:59:57;;;;;;;;;;;;;;;20.08;76.75;100267.06;5034991;28;1396;-82
2022/08/14 01:02:23;;;;;;;;;;;;;;;20.11;77.24;100255.25;5042545;28;1786;-82
2022/08/14 01:04:50;;;;;;;;;;;;;;;20.00;77.06;100265.22;5044916;28;1310;-82
2022/08/14 01:07:19;;;;;;;;;;;;;;;20.05;77.43;100261.41;5041452;28;1468;-81
2022/08/14 01:09:46;;;;;;;;;;;;;;;19.98;77.03;100256.47;5037940;28;2013;-82
2022/08/14 01:12:11;;;;;;;;;;;;;;;19.99;77.18;100253.31;5043910;28;1294;-82
2022/08/14 01:14:36;;;;;;;;;;;;;;;20.06;77.07;100257.50;5035147;28;1604;-82
2022/08/14 01:17:02;;;;;;;;;;;;;;;20.01;77.23;100259.34;5038251;28;1434;-82
2022/08/14 01:22:11;;;;;;;;;;;;;;;19.80;77.28;100247.56;5043414;28;1596;-81
2022/08/14 01:24:36;;;;;;;;;;;;;;;19.87;77.82;100244.19;5040805;28;1374;-81
2022/08/14 01:27:04;;;;;;;;;;;;;;;19.60;78.39;100243.75;5035501;28;1833;-81
2022/08/14 01:29:30;;;;;;;;;;;;;;;19.64;78.16;100246.66;5041986;28;1874;-81
2022/08/14 01:31:56;;;;;;;;;;;;;;;19.50;78.88;100243.38;5040946;28;1569;-81
2022/08/14 01:34:24;;;;;;;;;;;;;;;19.36;79.92;100242.88;5044976;28;1628;-80
2022/08/14 01:36:51;;;;;;;;;;;;;;;19.63;78.82;100236.69;5037039;28;1331;-81
2022/08/14 01:39:17;;;;;;;;;;;;;;;19.53;78.16;100231.59;5040571;28;1425;-81
2022/08/14 01:41:44;;;;;;;;;;;;;;;19.33;79.74;100238.03;5041214;28;1084;-81
2022/08/14 01:44:11;;;;;;;;;;;;;;;19.14;79.65;100227.50;5039508;28;1393;-81
2022/08/14 01:46:38;;;;;;;;;;;;;;;19.23;80.29;100230.94;5041605;28;1443;-81
2022/08/14 01:49:05;;;;;;;;;;;;;;;19.28;79.28;100227.97;5040280;28;1898;-81
2022/08/14 01:51:30;;;;;;;;;;;;;;;19.08;79.76;100218.56;5041486;28;1509;-81
2022/08/14 01:53:57;;;;;;;;;;;;;;;19.11;80.11;100217.88;5040091;28;1312;-81
2022/08/14 01:56:35;;;;;;;;;;;;;;;19.29;79.45;100212.94;5034703;28;1506;-81
2022/08/14 01:59:00;;;;;;;;;;;;;;;18.98;79.71;100207.91;5035703;28;1073;-81
2022/08/14 02:01:26;;;;;;;;;;;;;;;19.22;78.81;100202.38;5035131;28;1561;-81
2022/08/14 02:03:51;;;;;;;;;;;;;;;19.36;78.86;100202.06;5041380;28;1364;-80
2022/08/14 02:06:16;;;;;;;;;;;;;;;19.17;79.82;100202.63;5036120;28;1538;-81
2022/08/14 02:08:42;;;;;;;;;;;;;;;19.05;80.29;100202.63;5040486;28;1902;-80
2022/08/14 02:11:21;;;;;;;;;;;;;;;19.11;79.20;100204.03;5040769;28;1783;-80
2022/08/14 02:13:49;;;;;;;;;;;;;;;19.14;78.80;100199.75;5041038;28;1284;-81
2022/08/14 02:16:16;;;;;;;;;;;;;;;19.08;80.06;100201.91;5039496;28;1501;-81
2022/08/14 02:18:41;;;;;;;;;;;;;;;18.96;79.93;100198.34;5033097;28;1631;-80
2022/08/14 02:21:07;;;;;;;;;;;;;;;18.93;79.05;100197.03;5036807;28;1168;-80
2022/08/14 02:23:32;;;;;;;;;;;;;;;18.88;80.11;100191.72;5040655;28;1304;-80
2022/08/14 02:25:58;;;;;;;;;;;;;;;18.81;80.82;100186.72;5037748;28;1785;-80
2022/08/14 02:28:24;;;;;;;;;;;;;;;18.67;80.22;100188.19;5040940;28;1898;-81
2022/08/14 02:30:49;;;;;;;;;;;;;;;18.74;80.89;100158.75;5039376;28;1754;-81
2022/08/14 02:33:14;;;;;;;;;;;;;;;18.84;80.04;100180.50;5032713;28;1738;-81
2022/08/14 02:35:41;;;;;;;;;;;;;;;18.82;81.29;100179.22;5038919;28;1273;-81
2022/08/14 02:38:06;;;;;;;;;;;;;;;18.67;80.61;100171.56;5038735;28;1211;-81
2022/08/14 02:40:32;;;;;;;;;;;;;;;18.54;81.63;100174.25;5023090;28;1797;-80
2022/08/14 02:42:58;;;;;;;;;;;;;;;18.69;81.69;100172.84;5040100;28;1526;-80
2022/08/14 02:45:24;;;;;;;;;;;;;;;18.84;81.23;100174.16;5040769;28;1306;-81
2022/08/14 02:47:49;;;;;;;;;;;;;;;18.89;81.52;100162.81;5033265;28;1457;-81
2022/08/14 02:50:16;;;;;;;;;;;;;;;18.92;81.25;100170.47;5035683;28;1874;-81
2022/08/14 02:52:41;;;;;;;;;;;;;;;18.70;81.26;100165.34;5029797;28;1751;-81
2022/08/14 02:55:06;;;;;;;;;;;;;;;18.44;80.58;100166.41;5033682;28;1773;-80
2022/08/14 02:57:31;;;;;;;;;;;;;;;18.52;80.62;100157.19;5040616;28;1461;-81
2022/08/14 02:59:57;;;;;;;;;;;;;;;18.65;81.64;100160.00;5043185;28;1699;-81
2022/08/14 03:02:22;;;;;;;;;;;;;;;18.56;80.82;100156.47;5042724;28;1488;-81
2022/08/14 03:04:47;;;;;;;;;;;;;;;18.46;82.02;100150.22;5041798;28;1726;-81
2022/08/14 03:07:15;;;;;;;;;;;;;;;18.60;82.02;100151.91;5042832;28;1757;-81
2022/08/14 03:09:41;;;;;;;;;;;;;;;18.39;82.08;100138.06;5033362;28;1985;-81
2022/08/14 03:12:06;;;;;;;;;;;;;;;18.51;81.56;100143.66;5043367;28;1038;-81
2022/08/14 03:14:36;;;;;;;;;;;;;;;18.48;80.76;100144.31;5042907;28;1636;-80
2022/08/14 03:17:01;;;;;;;;;;;;;;;18.47;81.80;100142.72;5043596;28;1537;-81
2022/08/14 03:19:26;;;;;;;;;;;;;;;18.45;81.73;100143.06;5038574;28;1365;-81
2022/08/14 03:21:52;;;;;;;;;;;;;;;18.49;81.14;100141.22;5024411;28;1047;-81
2022/08/14 03:24:20;;;;;;;;;;;;;;;18.42;81.83;100135.44;5039778;28;1615;-81
2022/08/14 03:26:46;;;;;;;;;;;;;;;18.52;81.53;100146.09;5040952;28;1650;-81
2022/08/14 03:29:12;;;;;;;;;;;;;;;18.50;81.55;100142.84;5042622;28;1961;-81
2022/08/14 03:31:39;;;;;;;;;;;;;;;18.54;80.99;100142.97;5042295;28;1267;-81
2022/08/14 03:34:04;;;;;;;;;;;;;;;18.43;81.52;100139.00;5043261;28;1743;-81
2022/08/14 03:36:32;;;;;;;;;;;;;;;18.32;82.29;100140.59;5041970;28;1361;-81
2022/08/14 03:38:58;;;;;;;;;;;;;;;18.03;82.93;100145.06;5037150;28;1562;-81
2022/08/14 03:41:24;;;;;;;;;;;;;;;18.23;82.08;100139.84;5041125;28;1281;-81
2022/08/14 03:43:51;;;;;;;;;;;;;;;18.33;82.18;100131.94;5041493;28;1721;-80
2022/08/14 03:46:17;;;;;;;;;;;;;;;18.31;82.00;100125.91;5025920;28;1890;-81
2022/08/14 03:48:43;;;;;;;;;;;;;;;18.39;80.62;100127.78;5035312;28;1961;-81
2022/08/14 03:51:09;;;;;;;;;;;;;;;18.27;82.03;100126.97;5042361;28;1217;-81
2022/08/14 03:53:40;;;;;;;;;;;;;;;18.21;81.66;100114.44;5043733;28;1271;-81
2022/08/14 03:56:06;;;;;;;;;;;;;;;18.23;82.64;100126.81;5042192;28;1330;-81
2022/08/14 03:58:31;;;;;;;;;;;;;;;18.24;82.71;100122.09;5041408;28;1656;-81
2022/08/14 04:00:57;;;;;;;;;;;;;;;18.19;81.69;100125.91;5036224;28;1758;-81
2022/08/14 04:03:25;;;;;;;;;;;;;;;17.89;82.56;100121.59;5039481;28;1335;-81
2022/08/14 04:05:50;;;;;;;;;;;;;;;17.78;83.49;100119.22;5041721;28;1335;-81
2022/08/14 04:08:16;;;;;;;;;;;;;;;17.96;82.08;100111.56;5043021;28;1795;-81
2022/08/14 04:10:41;;;;;;;;;;;;;;;18.10;82.69;100105.78;5037387;28;1926;-81
2022/08/14 04:13:06;;;;;;;;;;;;;;;17.95;82.97;100098.09;5043233;28;1208;-81
2022/08/14 04:15:32;;;;;;;;;;;;;;;18.03;82.69;100106.28;5042065;28;1508;-81
2022/08/14 04:18:02;;;;;;;;;;;;;;;17.80;83.82;100101.47;5041490;28;1625;-80
2022/08/14 04:20:27;;;;;;;;;;;;;;;17.80;82.95;100113.34;5041638;28;1503;-80
2022/08/14 04:22:52;;;;;;;;;;;;;;;17.77;83.48;100103.78;5042249;28;1330;-80
2022/08/14 04:25:18;;;;;;;;;;;;;;;17.80;83.58;100109.75;5041226;28;1367;-81
2022/08/14 04:27:43;;;;;;;;;;;;;;;17.93;83.49;100105.94;5038483;28;1272;-81
2022/08/14 04:30:09;;;;;;;;;;;;;;;17.68;84.68;100093.91;5037223;28;1937;-80
2022/08/14 04:32:34;;;;;;;;;;;;;;;17.83;82.97;100084.19;5040900;28;1494;-81
2022/08/14 04:35:00;;;;;;;;;;;;;;;17.95;83.60;100076.72;5040618;28;1585;-81
2022/08/14 04:45:40;;;;;;;;;;;;;;;18.02;82.64;100081.72;5025887;28;1259;-81
2022/08/14 04:48:14;;;;;;;;;;;;;;;18.03;82.70;100086.91;5041559;28;1371;-81
2022/08/14 04:50:50;;;;;;;;;;;;;;;17.88;83.72;100083.97;5035009;28;1882;-81
2022/08/14 04:53:16;;;;;;;;;;;;;;;18.05;83.08;100075.50;5037443;28;1532;-81
2022/08/14 04:55:43;;;;;;;;;;;;;;;18.09;83.21;100077.25;5039631;28;1554;-81
2022/08/14 04:58:09;;;;;;;;;;;;;;;18.18;83.51;100071.63;5042361;28;1438;-81
2022/08/14 05:00:34;;;;;;;;;;;;;;;18.11;83.08;100066.66;5041609;28;1431;-80
2022/08/14 05:03:02;;;;;;;;;;;;;;;18.06;85.16;100066.03;5041561;28;1435;-80
2022/08/14 05:05:27;;;;;;;;;;;;;;;17.99;84.75;100072.13;5035336;28;1385;-80
2022/08/14 05:07:52;;;;;;;;;;;;;;;18.08;85.36;100052.66;5041609;28;1761;-81
2022/08/14 05:10:24;;;;;;;;;;;;;;;18.12;84.76;100061.91;5040095;28;1871;-81
2022/08/14 05:12:51;;;;;;;;;;;;;;;18.28;84.61;100049.03;5042491;28;864;-81
2022/08/14 05:15:16;;;;;;;;;;;;;;;18.31;84.18;100058.59;5039899;28;1430;-81
2022/08/14 05:17:42;;;;;;;;;;;;;;;18.42;84.11;100051.47;5032893;28;1381;-81
2022/08/14 05:20:08;;;;;;;;;;;;;;;18.44;85.28;100052.78;5038909;28;1497;-80
2022/08/14 05:22:33;;;;;;;;;;;;;;;18.31;85.12;100056.66;5037622;28;1585;-80
2022/08/14 05:24:59;;;;;;;;;;;;;;;18.31;84.63;100062.19;5040189;28;1430;-80
2022/08/14 05:27:24;;;;;;;;;;;;;;;18.40;85.37;100060.13;5040277;28;1702;-80
2022/08/14 05:29:50;;;;;;;;;;;;;;;18.33;85.21;100070.97;5041218;28;1890;-80
2022/08/14 05:32:15;;;;;;;;;;;;;;;18.37;86.32;100060.81;5041140;28;1177;-81
2022/08/14 05:34:40;;;;;;;;;;;;;;;18.52;84.91;100057.41;5039868;28;1353;-81
2022/08/14 05:37:06;;;;;;;;;;;;;;;18.57;85.68;100056.38;5040064;28;1569;-80
2022/08/14 05:39:31;;;;;;;;;;;;;;;18.51;85.88;100058.53;5039298;28;1326;-81
2022/08/14 05:41:56;;;;;;;;;;;;;;;18.54;86.34;100055.06;5035984;28;1154;-80
2022/08/14 05:44:21;;;;;;;;;;;;;;;18.53;86.76;100059.03;5019250;28;1543;-80
2022/08/14 05:46:47;;;;;;;;;;;;;;;18.52;86.19;100060.16;5025112;28;1244;-80
2022/08/14 05:49:13;;;;;;;;;;;;;;;18.61;85.90;100059.28;5039268;28;1890;-81
2022/08/14 05:51:38;;;;;;;;;;;;;;;18.65;87.27;100057.44;5039412;28;1418;-81
2022/08/14 05:54:03;;;;;;;;;;;;;;;18.74;86.30;100058.94;5036382;28;2058;-80
2022/08/14 05:56:28;;;;;;;;;;;;;;;18.82;86.36;100057.22;5039297;28;1166;-81
2022/08/14 05:58:53;;;;;;;;;;;;;;;18.83;87.72;100051.31;5030791;28;1704;-80
2022/08/14 06:01:19;;;;;;;;;;;;;;;18.98;86.79;100055.34;5038264;28;1160;-81
2022/08/14 06:03:44;;;;;;;;;;;;;;;19.06;86.30;100054.41;5025289;28;1541;-81
2022/08/14 06:06:09;;;;;;;;;;;;;;;19.13;86.64;100051.91;5021342;28;1023;-81
2022/08/14 06:08:34;;;;;;;;;;;;;;;19.19;86.22;100055.22;5022257;28;1906;-81
2022/08/14 06:11:04;;;;;;;;;;;;;;;19.26;86.52;100058.22;5029766;28;1763;-81
2022/08/14 06:13:30;;;;;;;;;;;;;;;19.28;85.78;100059.50;5039603;28;1386;-81
2022/08/14 06:15:55;;;;;;;;;;;;;;;19.35;85.91;100058.09;5039678;28;1378;-81
2022/08/14 06:18:20;;;;;;;;;;;;;;;19.38;86.06;100054.63;5039625;28;1810;-81
2022/08/14 06:20:45;;;;;;;;;;;;;;;19.40;84.81;100053.09;5036442;28;1735;-81
2022/08/14 06:23:11;;;;;;;;;;;;;;;19.46;84.74;100056.47;5028072;28;1428;-81
2022/08/14 06:25:36;;;;;;;;;;;;;;;19.50;84.44;100054.63;5029658;28;1525;-81
2022/08/14 06:28:02;;;;;;;;;;;;;;;19.50;84.88;100054.63;5033305;28;1665;-81
2022/08/14 06:30:28;;;;;;;;;;;;;;;19.53;84.56;100054.72;5039289;28;1963;-82
2022/08/14 06:32:54;;;;;;;;;;;;;;;19.59;83.52;100052.50;5027490;28;1486;-82
2022/08/14 06:35:19;;;;;;;;;;;;;;;19.63;84.20;100061.75;5044951;28;1334;-82
2022/08/14 06:37:44;;;;;;;;;;;;;;;19.67;85.85;100056.31;5044630;28;1434;-82
2022/08/14 06:40:11;;;;;;;;;;;;;;;19.69;85.54;100052.03;5042339;28;1805;-82
2022/08/14 06:42:36;;;;;;;;;;;;;;;19.73;85.38;100052.94;5046133;28;1132;-82
2022/08/14 06:45:02;;;;;;;;;;;;;;;19.74;86.11;100056.50;5039056;28;1549;-82
2022/08/14 06:47:27;;;;;;;;;;;;;;;19.73;85.39;100047.41;5043682;28;1456;-82
2022/08/14 06:49:52;;;;;;;;;;;;;;;19.79;85.95;100048.75;5024593;28;1905;-82
2022/08/14 06:52:17;;;;;;;;;;;;;;;19.82;85.57;100048.03;5023936;28;1418;-83
2022/08/14 06:54:43;;;;;;;;;;;;;;;19.84;85.70;100042.94;5045580;28;1343;-82
2022/08/14 06:57:08;;;;;;;;;;;;;;;19.90;84.58;100041.53;5038676;28;1774;-83
2022/08/14 06:59:33;;;;;;;;;;;;;;;19.95;85.15;100044.03;5044164;28;992;-83
2022/08/14 07:07:34;;;;;;;;;;;;;;;20.05;85.04;100047.47;5043643;28;1616;-83
2022/08/14 07:09:59;;;;;;;;;;;;;;;20.10;85.36;100050.81;5033411;28;1882;-83
2022/08/14 07:12:24;;;;;;;;;;;;;;;20.14;84.88;100037.81;5045280;28;1354;-82
2022/08/14 07:14:49;;;;;;;;;;;;;;;20.18;84.57;100049.81;5039883;28;1437;-82
2022/08/14 07:17:14;;;;;;;;;;;;;;;20.24;85.29;100044.84;5032524;28;1200;-82
2022/08/14 07:19:40;;;;;;;;;;;;;;;20.28;85.16;100045.72;5057448;28;1256;-83
2022/08/14 07:22:05;;;;;;;;;;;;;;;20.32;84.71;100041.09;5036574;28;1632;-82
2022/08/14 07:24:30;;;;;;;;;;;;;;;20.35;84.70;100043.16;5049657;28;1398;-83
2022/08/14 07:26:55;;;;;;;;;;;;;;;20.41;84.79;100036.19;5041714;28;1272;-82
2022/08/14 07:29:21;;;;;;;;;;;;;;;20.41;84.53;100041.75;5045136;28;1875;-83
2022/08/14 07:31:46;;;;;;;;;;;;;;;20.44;85.71;100045.78;5041259;28;1451;-84
2022/08/14 07:34:11;;;;;;;;;;;;;;;20.50;86.33;100047.91;5038278;28;1390;-83
2022/08/14 07:36:37;;;;;;;;;;;;;;;20.57;85.67;100038.97;5029710;28;1318;-85
2022/08/14 07:39:03;;;;;;;;;;;;;;;20.60;85.48;100043.81;5037218;28;1010;-84
2022/08/14 07:41:29;;;;;;;;;;;;;;;20.66;85.24;100036.81;5039469;28;1511;-83
2022/08/14 07:43:54;;;;;;;;;;;;;;;20.78;84.42;100040.31;5036946;28;1519;-86
2022/08/14 07:46:19;;;;;;;;;;;;;;;20.82;84.35;100028.47;5026033;28;1400;-86
2022/08/14 07:48:44;;;;;;;;;;;;;;;20.87;85.45;100033.75;5040063;28;1951;-84
2022/08/14 07:51:09;;;;;;;;;;;;;;;20.95;84.95;100039.13;5036633;28;1722;-86
2022/08/14 07:53:35;;;;;;;;;;;;;;;21.01;83.33;100028.53;5034883;28;1479;-84
2022/08/14 07:56:00;;;;;;;;;;;;;;;21.04;83.47;100022.22;5037393;28;1458;-84
2022/08/14 07:58:25;;;;;;;;;;;;;;;21.08;83.19;100023.13;5037473;28;1880;-84
2022/08/14 08:00:54;;;;;;;;;;;;;;;21.10;83.29;100012.41;5028675;28;1381;-84
2022/08/14 08:03:19;;;;;;;;;;;;;;;21.15;83.10;100026.88;5036069;28;1291;-86
2022/08/14 08:05:44;;;;;;;;;;;;;;;21.15;82.83;100023.28;5034121;28;1510;-84
2022/08/14 08:08:10;;;;;;;;;;;;;;;21.28;82.09;100013.66;5039504;28;1133;-84
2022/08/14 08:10:38;;;;;;;;;;;;;;;21.30;82.07;100016.91;5035723;28;1898;-84
2022/08/14 08:13:06;;;;;;;;;;;;;;;21.29;82.64;100009.72;5039070;28;1739;-84
2022/08/14 08:15:33;;;;;;;;;;;;;;;21.32;81.64;100009.00;5035206;28;1549;-84
2022/08/14 08:18:03;;;;;;;;;;;;;;;21.38;82.97;100003.94;5039472;28;1453;-84
2022/08/14 08:20:29;;;;;;;;;;;;;;;21.46;81.44;100002.91;5043410;28;1352;-85
2022/08/14 08:22:57;;;;;;;;;;;;;;;21.49;81.41;99999.41;5038035;28;1210;-86
2022/08/14 08:25:22;;;;;;;;;;;;;;;21.49;80.85;99997.44;5027940;28;1249;-86
2022/08/14 08:27:55;;;;;;;;;;;;;;;21.53;80.09;99992.72;5039867;28;1058;-86
2022/08/14 08:30:20;;;;;;;;;;;;;;;21.57;79.79;99989.22;5038214;28;1961;-86
2022/08/14 08:32:45;;;;;;;;;;;;;;;21.58;79.94;99991.63;5035022;28;1675;-84
2022/08/14 08:35:19;;;;;;;;;;;;;;;21.62;81.30;99988.91;5034266;28;1415;-83
2022/08/14 08:37:45;;;;;;;;;;;;;;;21.72;79.79;99979.97;5029838;28;1467;-84
2022/08/14 08:40:10;;;;;;;;;;;;;;;21.74;78.71;99978.44;5038739;28;1222;-83
2022/08/14 08:42:35;;;;;;;;;;;;;;;21.75;79.15;99966.13;5038131;28;1720;-84
2022/08/14 08:45:00;;;;;;;;;;;;;;;21.78;78.32;99959.78;5038277;28;1475;-83
2022/08/14 08:47:36;;;;;;;;;;;;;;;21.84;78.58;99955.56;5031606;28;1175;-84
2022/08/14 08:50:01;;;;;;;;;;;;;;;21.91;78.03;99952.09;5020205;28;1871;-84
2022/08/14 08:52:27;;;;;;;;;;;;;;;21.92;77.76;99958.47;5033100;28;1810;-84
2022/08/14 08:54:53;;;;;;;;;;;;;;;21.98;77.58;99951.44;5040536;28;1293;-84
2022/08/14 08:57:18;;;;;;;;;;;;;;;22.00;77.05;99949.91;5037434;28;1784;-84
2022/08/14 08:59:43;;;;;;;;;;;;;;;22.04;77.23;99936.00;5028278;28;1625;-83
2022/08/14 09:02:09;;;;;;;;;;;;;;;22.07;77.66;99946.44;5026923;28;1236;-84
2022/08/14 09:04:38;;;;;;;;;;;;;;;22.07;77.14;99938.88;5037987;28;1213;-85
2022/08/14 09:07:04;;;;;;;;;;;;;;;22.11;76.12;99928.59;5034207;28;1707;-82
2022/08/14 09:09:30;;;;;;;;;;;;;;;22.17;75.79;99935.47;5037800;28;1874;-84
2022/08/14 09:11:56;;;;;;;;;;;;;;;22.19;76.67;99932.31;5037130;28;1168;-86
2022/08/14 09:14:21;;;;;;;;;;;;;;;22.27;76.28;99934.84;5030103;28;1713;-83
2022/08/14 09:16:48;;;;;;;;;;;;;;;22.38;75.82;99929.44;5030792;28;1727;-84
2022/08/14 09:19:13;;;;;;;;;;;;;;;22.32;75.07;99932.91;5031210;28;1805;-85
2022/08/14 09:21:39;;;;;;;;;;;;;;;22.34;75.51;99922.19;5033905;28;1359;-86
2022/08/14 09:24:05;;;;;;;;;;;;;;;22.44;75.78;99929.94;5031806;28;1765;-84
2022/08/14 09:26:30;;;;;;;;;;;;;;;22.48;74.95;99928.00;5032136;28;1769;-84
2022/08/14 09:28:55;;;;;;;;;;;;;;;22.44;74.09;99933.53;5027285;28;1964;-86
2022/08/14 09:31:21;;;;;;;;;;;;;;;22.49;74.96;99924.84;5032630;28;1509;-82
2022/08/14 09:33:52;;;;;;;;;;;;;;;22.55;75.04;99919.75;5033494;28;1605;-85
2022/08/14 09:36:26;;;;;;;;;;;;;;;22.63;74.24;99927.84;5031464;28;1266;-85
2022/08/14 09:39:05;;;;;;;;;;;;;;;22.65;72.72;99924.69;5034645;28;1787;-84
2022/08/14 09:41:54;;;;;;;;;;;;;;;22.70;74.32;99920.78;5032376;28;1407;-83
2022/08/14 09:44:28;;;;;;;;;;;;;;;22.71;74.51;99920.41;5048283;28;1477;-84
2022/08/14 09:46:54;;;;;;;;;;;;;;;22.78;74.12;99906.59;5031742;28;1453;-84
2022/08/14 09:49:33;;;;;;;;;;;;;;;22.83;73.52;99897.88;5026500;28;1977;-84
2022/08/14 09:52:09;;;;;;;;;;;;;;;22.87;75.19;99898.75;5033363;28;1526;-83
2022/08/14 09:54:38;;;;;;;;;;;;;;;22.88;73.33;99900.31;5028201;28;1500;-84
2022/08/14 09:57:05;;;;;;;;;;;;;;;22.90;72.99;99897.16;5034591;28;1235;-83
2022/08/14 09:59:38;;;;;;;;;;;;;;;22.94;73.18;99898.03;5034397;28;1399;-84
2022/08/14 10:02:05;;;;;;;;;;;;;;;22.99;72.98;99901.28;5036876;28;1342;-84
2022/08/14 10:04:31;;;;;;;;;;;;;;;23.09;73.30;99899.00;5039760;28;1660;-83
2022/08/14 10:06:57;;;;;;;;;;;;;;;23.10;72.25;99886.66;5042995;28;1416;-84
2022/08/14 10:09:22;;;;;;;;;;;;;;;23.17;71.76;99883.97;5046660;28;1905;-84
2022/08/14 10:11:55;;;;;;;;;;;;;;;23.19;71.46;99887.19;5041833;28;1547;-84
2022/08/14 10:14:23;;;;;;;;;;;;;;;23.32;70.84;99880.97;5045418;28;1399;-84
2022/08/14 10:16:51;;;;;;;;;;;;;;;23.36;71.59;99867.84;5044123;28;1829;-84
2022/08/14 10:19:18;;;;;;;;;;;;;;;23.43;70.26;99871.91;5044780;28;1041;-84
2022/08/14 10:21:55;;;;;;;;;;;;;;;23.45;71.50;99866.75;5038512;28;1277;-86
2022/08/14 10:24:24;;;;;;;;;;;;;;;23.49;71.18;99856.44;5044191;28;1264;-85
2022/08/14 10:26:53;;;;;;;;;;;;;;;23.59;71.16;99861.34;5041930;28;1316;-84
2022/08/14 10:29:30;;;;;;;;;;;;;;;23.63;71.53;99857.41;5035851;28;1955;-86
2022/08/14 10:31:57;;;;;;;;;;;;;;;23.61;70.34;99856.97;5036099;28;1437;-85
2022/08/14 10:34:29;;;;;;;;;;;;;;;23.63;71.41;99851.00;5035736;28;1753;-83
2022/08/14 10:37:02;;;;;;;;;;;;;;;23.65;70.98;99852.22;5036600;28;1275;-85
2022/08/14 10:39:28;;;;;;;;;;;;;;;23.68;70.37;99843.06;5037777;28;1612;-84
2022/08/14 10:42:06;;;;;;;;;;;;;;;23.60;72.79;99843.38;5046370;28;1153;-83
2022/08/14 10:44:34;;;;;;;;;;;;;;;23.63;71.34;99835.03;5038765;28;1731;-84
2022/08/14 10:47:02;;;;;;;;;;;;;;;23.80;71.00;99822.44;5045573;28;1327;-86
2022/08/14 10:49:27;;;;;;;;;;;;;;;23.92;69.01;99827.72;5038809;28;1874;-86
2022/08/14 10:52:00;;;;;;;;;;;;;;;23.96;68.64;99824.94;5038772;28;1392;-85
2022/08/14 10:54:33;;;;;;;;;;;;;;;24.04;69.25;99827.41;5035771;28;1375;-85
2022/08/14 10:57:17;;;;;;;;;;;;;;;24.04;69.70;99821.03;5038550;28;1316;-86
2022/08/14 11:00:10;;;;;;;;;;;;;;;24.08;68.52;99817.03;5031588;28;1724;-85
2022/08/14 11:02:36;;;;;;;;;;;;;;;24.19;67.63;99814.34;5027514;28;1432;-85
2022/08/14 11:05:03;;;;;;;;;;;;;;;24.20;69.24;99818.75;5042332;28;1739;-85
2022/08/14 11:07:29;;;;;;;;;;;;;;;24.08;68.07;99819.03;5044342;28;1502;-85
2022/08/14 11:09:56;;;;;;;;;;;;;;;24.15;68.08;99813.53;5042988;28;1906;-84
2022/08/14 11:12:21;;;;;;;;;;;;;;;24.13;67.72;99813.09;5045883;28;1153;-85
2022/08/14 11:14:54;;;;;;;;;;;;;;;24.27;67.77;99806.81;5036795;28;1730;-85
2022/08/14 11:17:19;;;;;;;;;;;;;;;24.42;67.39;99794.53;5035751;28;1370;-88
2022/08/14 11:19:44;;;;;;;;;;;;;;;24.61;65.39;99807.44;5032097;28;1425;-84
2022/08/14 11:22:10;;;;;;;;;;;;;;;24.61;66.70;99805.44;5037185;28;1418;-84
2022/08/14 11:24:37;;;;;;;;;;;;;;;24.60;65.16;99797.44;5026046;28;1734;-84
2022/08/14 11:27:04;;;;;;;;;;;;;;;24.69;65.26;99804.28;5036393;28;1254;-84
2022/08/14 11:29:29;;;;;;;;;;;;;;;24.65;66.43;99797.06;5022900;28;1878;-84
2022/08/14 11:31:56;;;;;;;;;;;;;;;24.67;69.57;99797.50;5039143;28;1443;-84
2022/08/14 11:34:21;;;;;;;;;;;;;;;24.75;65.07;99791.50;5036509;28;1500;-84
2022/08/14 11:36:46;;;;;;;;;;;;;;;24.77;64.63;99785.50;5022768;28;865;-84
2022/08/14 11:39:21;;;;;;;;;;;;;;;24.73;64.92;99784.72;5024349;28;1797;-84
2022/08/14 11:41:47;;;;;;;;;;;;;;;24.64;65.63;99795.47;5038770;28;1250;-83
2022/08/14 11:44:12;;;;;;;;;;;;;;;24.66;66.27;99791.09;5040120;28;1591;-84
2022/08/14 11:46:39;;;;;;;;;;;;;;;24.76;64.72;99789.50;5040106;28;1405;-84
2022/08/14 11:49:04;;;;;;;;;;;;;;;24.78;64.98;99775.94;5041343;28;1870;-85
2022/08/14 11:51:29;;;;;;;;;;;;;;;24.85;64.61;99770.34;5042469;28;886;-84
2022/08/14 11:53:56;;;;;;;;;;;;;;;24.97;63.80;99780.44;5054569;28;1679;-83
2022/08/14 11:56:21;;;;;;;;;;;;;;;24.98;63.32;99771.66;5038006;28;1703;-84
2022/08/14 11:58:51;;;;;;;;;;;;;;;24.99;63.18;99769.66;5037037;28;1356;-84
2022/08/14 12:01:25;;;;;;;;;;;;;;;25.02;62.96;99758.44;5040956;28;1769;-83
2022/08/14 12:03:51;;;;;;;;;;;;;;;24.94;63.31;99754.03;5041926;28;1411;-84
2022/08/14 12:06:17;;;;;;;;;;;;;;;24.99;62.75;99752.84;5029604;28;1389;-84
2022/08/14 12:08:45;;;;;;;;;;;;;;;25.01;63.18;99747.66;5021267;28;1956;-83
2022/08/14 12:11:13;;;;;;;;;;;;;;;25.06;63.67;99747.25;5022154;28;1563;-83
2022/08/14 12:13:39;;;;;;;;;;;;;;;25.19;62.90;99745.69;5041977;28;1365;-82
2022/08/14 12:16:06;;;;;;;;;;;;;;;25.24;61.77;99734.09;5042735;28;1411;-84
2022/08/14 12:18:33;;;;;;;;;;;;;;;25.31;61.93;99748.09;5040225;28;1259;-84
2022/08/14 12:21:08;;;;;;;;;;;;;;;25.43;62.01;99732.94;5041999;28;1763;-84
2022/08/14 12:23:34;;;;;;;;;;;;;;;25.56;62.16;99731.31;5043306;28;1421;-84
2022/08/14 12:26:03;;;;;;;;;;;;;;;25.63;61.46;99732.16;5041446;28;1413;-85
2022/08/14 12:28:28;;;;;;;;;;;;;;;25.67;61.38;99720.94;5042017;28;1532;-82
2022/08/14 12:30:53;;;;;;;;;;;;;;;25.70;60.72;99722.94;5041693;28;1894;-82
2022/08/14 12:33:21;;;;;;;;;;;;;;;25.73;61.17;99719.34;5038541;28;1406;-82
2022/08/14 12:35:48;;;;;;;;;;;;;;;25.76;60.62;99724.16;5042841;28;1795;-82
2022/08/14 12:38:13;;;;;;;;;;;;;;;25.73;60.52;99722.13;5025417;28;1438;-83
2022/08/14 12:40:49;;;;;;;;;;;;;;;25.76;61.05;99712.94;5039098;28;1396;-83
2022/08/14 12:43:17;;;;;;;;;;;;;;;25.93;60.90;99698.09;5038877;28;1113;-83
2022/08/14 12:45:49;;;;;;;;;;;;;;;26.00;61.17;99694.47;5098125;27;1666;-83
2022/08/14 12:48:15;;;;;;;;;;;;;;;26.06;60.84;99697.66;5097491;28;1689;-83
2022/08/14 12:50:41;;;;;;;;;;;;;;;26.11;60.54;99694.44;5098342;28;1408;-84
2022/08/14 12:53:08;;;;;;;;;;;;;;;26.20;61.00;99684.38;5098934;28;785;-83
2022/08/14 12:55:34;;;;;;;;;;;;;;;26.33;58.87;99681.97;5097741;28;1729;-84
2022/08/14 12:58:02;;;;;;;;;;;;;;;26.32;59.42;99685.97;5086865;28;1393;-83
2022/08/14 13:00:27;;;;;;;;;;;;;;;26.25;59.72;99678.34;5092061;28;1423;-84
2022/08/14 13:02:54;;;;;;;;;;;;;;;26.47;59.22;99669.88;5088671;28;1722;-83
2022/08/14 13:05:23;;;;;;;;;;;;;;;26.63;60.60;99668.19;5089271;28;1886;-83